^^
Your Local Weather - Clay, NY Station Historical Data
 
Daily Summary for December 11, 2017 Units:  English    Metric   Both
« Previous Day
Next Day »
Daily Weekly Monthly Yearly Custom
  Current: High: Low: Average:
Temperature: 24.1 °F 29.9 °F 23.8 °F 27.1 °F
Dew Point: 20.2 °F 24.8 °F 19.7 °F 22.7 °F
Humidity: 85% 89% 72% 83%
Wind Speed: 2.0mph 4.0mph 1.0mph 2.2mph
Wind Gust: 3.0mph 7.0mph - -
WindNW - - WSW
Pressure: 30.02 in 30.02 in 29.86 in -
Precipitation: 0.00 in      
Historical Graphs
 
 
Tabular Data for December 11, 2017
Time Temperature Dew Point Pressure Wind Wind Speed Wind Gust Humidity Rainfall Rate (Hourly) solar
00:04 28.9 °F 24.4 °F 29.87 in WSW 2.0 mph 2.0 mph 83% 0.00 in 0 W/m2
00:10 28.9 °F 24.1 °F 29.87 in West 3.0 mph 3.0 mph 82% 0.00 in 0 W/m2
00:16 28.9 °F 24.1 °F 29.87 in SSW 3.0 mph 7.0 mph 82% 0.00 in 0 W/m2
00:40 29.2 °F 23.8 °F 29.86 in SW 3.0 mph 3.0 mph 80% 0.00 in 0 W/m2
00:46 29.2 °F 23.8 °F 29.86 in WSW 3.0 mph 5.0 mph 80% 0.00 in 0 W/m2
00:52 29.2 °F 23.5 °F 29.86 in SW 3.0 mph 3.0 mph 79% 0.00 in 0 W/m2
00:58 29.3 °F 23.6 °F 29.86 in WSW 3.0 mph 6.0 mph 79% 0.00 in 0 W/m2
01:04 29.2 °F 23.2 °F 29.86 in WSW 2.0 mph 2.0 mph 78% 0.00 in 0 W/m2
01:16 29.4 °F 23.4 °F 29.86 in SW 3.0 mph 6.0 mph 78% 0.00 in 0 W/m2
01:22 29.3 °F 23.0 °F 29.86 in WSW 2.0 mph 2.0 mph 77% 0.00 in 0 W/m2
01:28 29.3 °F 23.0 °F 29.86 in WSW 1.0 mph 2.0 mph 77% 0.00 in 0 W/m2
01:34 29.2 °F 22.9 °F 29.86 in SW 1.0 mph 3.0 mph 77% 0.00 in 0 W/m2
01:40 29.2 °F 22.9 °F 29.86 in SW 2.0 mph 2.0 mph 77% 0.00 in 0 W/m2
01:46 29.3 °F 23.0 °F 29.86 in SW 2.0 mph 5.0 mph 77% 0.00 in 0 W/m2
01:52 29.3 °F 23.0 °F 29.87 in West 2.0 mph 4.0 mph 77% 0.00 in 0 W/m2
01:58 29.4 °F 23.1 °F 29.87 in SW 2.0 mph 6.0 mph 77% 0.00 in 0 W/m2
02:04 29.4 °F 22.8 °F 29.87 in WSW 2.0 mph 3.0 mph 76% 0.00 in 0 W/m2
02:10 29.5 °F 22.9 °F 29.87 in SW 3.0 mph 3.0 mph 76% 0.00 in 0 W/m2
02:16 29.5 °F 22.6 °F 29.87 in SW 2.0 mph 4.0 mph 75% 0.00 in 0 W/m2
02:22 29.6 °F 22.6 °F 29.87 in SW 2.0 mph 3.0 mph 75% 0.00 in 0 W/m2
02:28 29.6 °F 22.3 °F 29.87 in SW 1.0 mph 3.0 mph 74% 0.00 in 0 W/m2
02:34 29.5 °F 22.2 °F 29.87 in SW 1.0 mph 3.0 mph 74% 0.00 in 0 W/m2
02:40 29.5 °F 22.2 °F 29.87 in WSW 1.0 mph 1.0 mph 74% 0.00 in 0 W/m2
02:46 29.5 °F 22.2 °F 29.87 in SW 1.0 mph 2.0 mph 74% 0.00 in 0 W/m2
02:58 29.6 °F 22.0 °F 29.87 in WSW 1.0 mph 2.0 mph 73% 0.00 in 0 W/m2
03:10 29.8 °F 22.2 °F 29.88 in SW 2.0 mph 2.0 mph 73% 0.00 in 0 W/m2
03:16 29.9 °F 22.0 °F 29.88 in WSW 3.0 mph 3.0 mph 72% 0.00 in 0 W/m2
03:28 29.9 °F 22.3 °F 29.88 in WNW 3.0 mph 5.0 mph 73% 0.00 in 0 W/m2
03:40 29.6 °F 22.6 °F 29.89 in West 3.0 mph 4.0 mph 75% 0.00 in 0 W/m2
03:46 29.2 °F 23.2 °F 29.89 in West 4.0 mph 4.0 mph 78% 0.00 in 0 W/m2
03:58 28.5 °F 23.7 °F 29.89 in WSW 2.0 mph 7.0 mph 82% 0.00 in 0 W/m2
04:04 28.3 °F 23.8 °F 29.89 in WSW 2.0 mph 4.0 mph 83% 0.00 in 0 W/m2
04:10 28.1 °F 23.9 °F 29.89 in West 2.0 mph 3.0 mph 84% 0.00 in 0 W/m2
04:16 28.0 °F 24.1 °F 29.89 in WSW 2.0 mph 4.0 mph 85% 0.00 in 0 W/m2
04:22 27.9 °F 24.3 °F 29.89 in SW 3.0 mph 6.0 mph 86% 0.00 in 0 W/m2
04:40 27.7 °F 24.3 °F 29.90 in WSW 3.0 mph 5.0 mph 87% 0.00 in 0 W/m2
04:52 27.6 °F 24.5 °F 29.90 in WSW 3.0 mph 3.0 mph 88% 0.00 in 0 W/m2
04:58 27.6 °F 24.5 °F 29.90 in WSW 4.0 mph 4.0 mph 88% 0.00 in 0 W/m2
05:04 27.6 °F 24.8 °F 29.90 in WSW 4.0 mph 6.0 mph 89% 0.00 in 0 W/m2
05:10 27.5 °F 24.7 °F 29.90 in SW 3.0 mph 4.0 mph 89% 0.00 in 0 W/m2
05:28 27.6 °F 24.8 °F 29.91 in SW 2.0 mph 3.0 mph 89% 0.00 in 0 W/m2
05:34 27.6 °F 24.8 °F 29.91 in West 2.0 mph 2.0 mph 89% 0.00 in 0 W/m2
05:40 27.6 °F 24.8 °F 29.91 in West 1.0 mph 1.0 mph 89% 0.00 in 0 W/m2
05:46 27.6 °F 24.8 °F 29.91 in WSW 2.0 mph 2.0 mph 89% 0.00 in 0 W/m2
05:52 27.6 °F 24.8 °F 29.92 in WSW 1.0 mph 2.0 mph 89% 0.00 in 0 W/m2
05:58 27.6 °F 24.8 °F 29.92 in WSW 1.0 mph 3.0 mph 89% 0.00 in 0 W/m2
06:04 27.6 °F 24.8 °F 29.92 in West 1.0 mph 3.0 mph 89% 0.00 in 0 W/m2
06:16 27.3 °F 24.5 °F 29.92 in NW 2.0 mph 3.0 mph 89% 0.00 in 0 W/m2
06:22 27.0 °F 24.2 °F 29.92 in NW 2.0 mph 2.0 mph 89% 0.00 in 0 W/m2
06:36 26.7 °F 23.9 °F 29.93 in NW 1.0 mph 3.0 mph 89% 0.00 in 0 W/m2
06:42 26.7 °F 23.9 °F 29.93 in NW 1.0 mph 4.0 mph 89% 0.00 in 0 W/m2
06:54 26.7 °F 23.9 °F 29.94 in NW 1.0 mph 3.0 mph 89% 0.00 in 0 W/m2
07:00 26.7 °F 23.9 °F 29.95 in WNW 3.0 mph 4.0 mph 89% 0.00 in 0 W/m2
07:06 26.3 °F 23.5 °F 29.95 in NW 4.0 mph 5.0 mph 89% 0.00 in 0 W/m2
07:18 25.8 °F 23.0 °F 29.95 in North 3.0 mph 5.0 mph 89% 0.00 in 0 W/m2
07:24 25.7 °F 22.9 °F 29.95 in NNW 3.0 mph 5.0 mph 89% 0.00 in 0 W/m2
07:30 25.5 °F 22.7 °F 29.95 in North 3.0 mph 4.0 mph 89% 0.00 in 0 W/m2
07:36 25.4 °F 22.6 °F 29.95 in NNW 2.0 mph 5.0 mph 89% 0.00 in 0 W/m2
07:42 25.3 °F 22.5 °F 29.95 in NNW 2.0 mph 2.0 mph 89% 0.00 in 0 W/m2
07:48 25.3 °F 22.5 °F 29.96 in NW 2.0 mph 3.0 mph 89% 0.00 in 5 W/m2
07:54 25.3 °F 22.5 °F 29.96 in NW 1.0 mph 2.0 mph 89% 0.00 in 5 W/m2
08:00 25.3 °F 22.5 °F 29.95 in NW 1.0 mph 5.0 mph 89% 0.00 in 9 W/m2
08:06 25.2 °F 22.4 °F 29.96 in NW 2.0 mph 5.0 mph 89% 0.00 in 11 W/m2
08:12 25.3 °F 22.5 °F 29.96 in NW 1.0 mph 1.0 mph 89% 0.00 in 12 W/m2
08:18 25.3 °F 22.2 °F 29.97 in NW 1.0 mph 3.0 mph 88% 0.00 in 11 W/m2
08:24 25.2 °F 22.1 °F 29.97 in NW 2.0 mph 2.0 mph 88% 0.00 in 14 W/m2
08:30 24.8 °F 21.8 °F 29.97 in NW 3.0 mph 3.0 mph 88% 0.00 in 18 W/m2
08:36 24.5 °F 21.2 °F 29.98 in North 3.0 mph 7.0 mph 87% 0.00 in 19 W/m2
08:42 24.3 °F 20.7 °F 29.99 in North 4.0 mph 5.0 mph 86% 0.00 in 23 W/m2
08:48 24.2 °F 20.6 °F 29.99 in North 4.0 mph 6.0 mph 86% 0.00 in 25 W/m2
08:54 24.1 °F 20.5 °F 30.00 in NW 3.0 mph 5.0 mph 86% 0.00 in 25 W/m2
09:00 24.0 °F 20.1 °F 30.00 in NW 3.0 mph 3.0 mph 85% 0.00 in 37 W/m2
09:12 24.1 °F 20.2 °F 30.00 in North 2.0 mph 2.0 mph 85% 0.00 in 47 W/m2
09:18 24.1 °F 20.2 °F 30.00 in NNW 2.0 mph 3.0 mph 85% 0.00 in 47 W/m2
09:24 24.1 °F 20.0 °F 30.00 in NNE 2.0 mph 4.0 mph 84% 0.00 in 51 W/m2
09:30 24.0 °F 19.9 °F 30.01 in North 3.0 mph 3.0 mph 84% 0.00 in 63 W/m2
09:36 23.9 °F 19.8 °F 30.01 in North 2.0 mph 3.0 mph 84% 0.00 in 69 W/m2
09:42 23.9 °F 19.8 °F 30.01 in North 2.0 mph 3.0 mph 84% 0.00 in 63 W/m2
09:48 24.0 °F 19.9 °F 30.01 in NNW 2.0 mph 3.0 mph 84% 0.00 in 63 W/m2
09:54 23.9 °F 19.8 °F 30.02 in NNE 2.0 mph 4.0 mph 84% 0.00 in 62 W/m2
10:00 23.8 °F 19.7 °F 30.02 in NE 3.0 mph 3.0 mph 84% 0.00 in 67 W/m2
10:12 23.9 °F 19.8 °F 30.01 in North 2.0 mph 3.0 mph 84% 0.00 in 100 W/m2
10:18 24.0 °F 19.9 °F 30.01 in NNW 3.0 mph 4.0 mph 84% 0.00 in 113 W/m2
10:24 24.1 °F 20.2 °F 30.02 in NW 2.0 mph 3.0 mph 85% 0.00 in 63 W/m2
Country Meadow, Clay, NY, USA
Compliments of Weather Underground - 2 mb